Aérodrome :
LOGIN :

S'inscrire | Disclaimer

   EN    FR    IT 

 










Légende :    VFR   VFR Marginal   IFR   IFR Intensif   IFR Très Intensif
Visi : 
Plafond : 
>= 8 km
>= 3000ft
5 à 8 km
1000 à 3000 ft
1500m à 5 km
500 à 1000 ft
800 à 1500m
200 à 500 ft
< 800m
< 200 ft
Symboles :   Orages  Brouillard  Fortes neiges  Fortes précipitations  Vent > 20 kt
SIGMETs :   Divers  Orages  Givrage  Turbulence  Onde Orograph.  Cendres Volcan.







- Altitude de l'aérodrome : 545 ft
- Code IATA : PZY


LZPP - Piešťany

DERNIER METAR :
  • 191830Z 33005KT 9999 FEW020 BKN100 18/16 Q1018

METARs EXPIRÉS :
  • 191800Z 33009KT 9999 FEW020 BKN100 18/17 Q1018
  • 191730Z 33006KT 9999 FEW025 BKN100 18/17 Q1018
  • 191700Z 02006KT 350V050 9999 -RA FEW025 BKN095 18/17 Q1017
  • 191630Z 36005KT 9999 -RA FEW025 OVC090 18/17 Q1018
  • 191600Z 35004KT 9999 -RA FEW025 OVC090 18/17 Q1018

TAF TAF LZPP
Valide du 19 à 18h jusqu'au 20 à 03h UTC


191700Z 1918/2003 35010KT 9999 SCT040 BKN080
TEMPO 1918/2003 -RA BKN040
TEMPO 1918/2003 6000 RA SCT010 BKN035
Pas de NOTAMs connus pour ce terrain.



MET'MAP, la Météo Aéronautique d'un coup d'oeil ! - Copyright ORBIFLY Décembre 2007 - Disclaimer

ORBIFLY MET'MAP TEAM :

Programmation & Développement : Alexandra Zaïnal
Conception & Développement : Baudouin d'Aumeries
Co-Programmation & Développement : Marc-Olivier Méhu
Soutien technique & logistique : Manuel Goepfert

Contact : metmap@orbifly.com




SOURCES & CREDITS :

   NOAA